createdAt,value
2018-11-27T00:01:36.004Z,7.50
2018-11-27T00:04:06.388Z,7.40
2018-11-27T00:06:35.966Z,7.50
2018-11-27T00:09:07.543Z,7.50
2018-11-27T00:11:37.019Z,7.50
2018-11-27T00:14:06.728Z,7.40
2018-11-27T00:16:36.465Z,7.40
2018-11-27T00:19:06.369Z,7.40
2018-11-27T00:21:35.937Z,7.40
2018-11-27T00:24:06.091Z,7.50
2018-11-27T00:26:35.711Z,7.50
2018-11-27T00:29:05.425Z,7.50
2018-11-27T00:31:34.892Z,7.50
2018-11-27T00:34:04.431Z,7.50
2018-11-27T00:36:34.027Z,7.50
2018-11-27T00:39:03.938Z,7.50
2018-11-27T00:41:33.585Z,7.50
2018-11-27T00:44:03.661Z,7.40
2018-11-27T00:46:33.105Z,7.40
2018-11-27T00:49:02.548Z,7.40
2018-11-27T00:51:32.010Z,7.30
2018-11-27T00:54:01.493Z,7.30
2018-11-27T00:56:30.945Z,7.30
2018-11-27T00:59:00.597Z,7.30
2018-11-27T01:01:30.104Z,7.30
2018-11-27T01:03:59.740Z,7.30
2018-11-27T01:06:29.318Z,7.20
2018-11-27T01:08:58.805Z,7.20
2018-11-27T01:11:28.253Z,7.20
2018-11-27T01:13:58.021Z,7.30
2018-11-27T01:16:27.480Z,7.30
2018-11-27T01:18:56.952Z,7.30
2018-11-27T01:21:32.815Z,7.30
2018-11-27T01:24:02.786Z,7.20
2018-11-27T01:26:32.372Z,7.30
2018-11-27T01:29:01.853Z,7.20
2018-11-27T01:31:31.425Z,7.00
2018-11-27T01:34:00.875Z,7.10
2018-11-27T01:36:30.343Z,7.10
2018-11-27T01:38:59.916Z,7.10
2018-11-27T01:41:29.402Z,7.10
2018-11-27T01:43:58.966Z,7.10
2018-11-27T01:46:28.427Z,7.10
2018-11-27T01:48:57.933Z,7.10
2018-11-27T01:51:27.483Z,7.10
2018-11-27T01:53:56.979Z,7.20
2018-11-27T01:56:26.416Z,7.20
2018-11-27T01:58:55.845Z,7.30
2018-11-27T02:01:25.294Z,7.30
2018-11-27T02:03:54.764Z,7.30
2018-11-27T02:06:24.306Z,7.40
2018-11-27T02:08:54.589Z,7.40
2018-11-27T02:11:24.046Z,7.40
2018-11-27T02:13:54.220Z,7.40
2018-11-27T02:16:23.676Z,7.40
2018-11-27T02:18:53.295Z,7.40
2018-11-27T02:21:22.731Z,7.40
2018-11-27T02:23:52.338Z,7.40
2018-11-27T02:26:21.799Z,7.30
2018-11-27T02:28:51.272Z,7.40
2018-11-27T02:31:20.720Z,7.30
2018-11-27T02:33:50.168Z,7.40
2018-11-27T02:36:19.593Z,7.40
2018-11-27T02:38:49.240Z,7.30
2018-11-27T02:41:18.714Z,7.40
2018-11-27T02:43:48.289Z,7.30
2018-11-27T02:46:17.766Z,7.30
2018-11-27T02:48:47.209Z,7.30
2018-11-27T02:51:16.694Z,7.30
2018-11-27T02:53:46.248Z,7.30
2018-11-27T02:56:22.403Z,7.40
2018-11-27T02:58:52.011Z,7.40
2018-11-27T03:01:21.455Z,7.40
2018-11-27T03:03:50.923Z,7.40
2018-11-27T03:06:20.545Z,7.40
2018-11-27T03:08:50.032Z,7.40
2018-11-27T03:11:19.759Z,7.40
2018-11-27T03:13:49.233Z,7.40
2018-11-27T03:16:18.911Z,7.40
2018-11-27T03:18:48.377Z,7.40
2018-11-27T03:21:17.988Z,7.40
2018-11-27T03:23:47.576Z,7.40
2018-11-27T03:26:17.083Z,7.30
2018-11-27T03:28:46.580Z,7.30
2018-11-27T03:31:16.033Z,7.30
2018-11-27T03:33:45.745Z,7.30
2018-11-27T03:36:15.192Z,7.30
2018-11-27T03:38:44.627Z,7.30
2018-11-27T03:41:14.130Z,7.30
2018-11-27T03:43:43.622Z,7.40
2018-11-27T03:46:13.110Z,7.40
2018-11-27T03:48:42.647Z,7.40
2018-11-27T03:51:12.350Z,7.40
2018-11-27T03:53:41.829Z,7.40
2018-11-27T03:56:11.542Z,7.40
2018-11-27T03:58:40.976Z,7.50
2018-11-27T04:01:10.431Z,7.40
2018-11-27T04:03:39.982Z,7.50
2018-11-27T04:06:09.613Z,7.50
2018-11-27T04:08:39.663Z,7.50
2018-11-27T04:11:09.210Z,7.50
2018-11-27T04:13:38.839Z,7.40
2018-11-27T04:16:08.291Z,7.40
2018-11-27T04:18:37.906Z,7.40
2018-11-27T04:21:07.501Z,7.40
2018-11-27T04:23:37.000Z,7.40
2018-11-27T04:26:06.690Z,7.40
2018-11-27T04:28:36.181Z,7.40
2018-11-27T04:31:05.781Z,7.40
2018-11-27T04:33:35.378Z,7.40
2018-11-27T04:36:05.494Z,7.50
2018-11-27T04:38:34.983Z,7.50
2018-11-27T04:41:05.202Z,7.50
2018-11-27T04:43:34.769Z,7.50
2018-11-27T04:46:04.333Z,7.50
2018-11-27T04:48:33.819Z,7.50
2018-11-27T04:51:04.251Z,7.50
2018-11-27T04:53:33.770Z,7.50
2018-11-27T04:56:03.637Z,7.40
2018-11-27T04:58:33.115Z,7.40
2018-11-27T05:01:02.687Z,7.40
2018-11-27T05:03:32.137Z,7.40
2018-11-27T05:06:01.626Z,7.40
2018-11-27T05:08:31.212Z,7.40
2018-11-27T05:11:00.681Z,7.50
2018-11-27T05:13:30.140Z,7.50
2018-11-27T05:15:59.651Z,7.50
2018-11-27T05:18:29.359Z,7.50
2018-11-27T05:20:59.649Z,7.50
2018-11-27T05:23:29.226Z,7.40
2018-11-27T05:25:58.749Z,7.50
2018-11-27T05:28:28.299Z,7.50
2018-11-27T05:30:57.895Z,7.50
2018-11-27T05:33:27.427Z,7.40
2018-11-27T05:35:57.119Z,7.40
2018-11-27T05:38:26.723Z,7.40
2018-11-27T05:40:56.993Z,7.40
2018-11-27T05:43:26.483Z,7.40
2018-11-27T05:45:55.949Z,7.40
2018-11-27T05:48:25.467Z,7.30
2018-11-27T05:50:55.554Z,7.30
2018-11-27T05:53:25.139Z,7.30
2018-11-27T05:55:54.674Z,7.30
2018-11-27T05:58:24.218Z,7.30
2018-11-27T06:00:53.698Z,7.30
2018-11-27T06:03:23.387Z,7.30
2018-11-27T06:05:52.917Z,7.40
2018-11-27T06:08:22.366Z,7.30
2018-11-27T06:10:53.080Z,7.30
2018-11-27T06:13:23.208Z,7.20
2018-11-27T06:15:52.650Z,7.20
2018-11-27T06:18:22.155Z,7.10
2018-11-27T06:20:51.773Z,7.10
2018-11-27T06:23:21.353Z,7.10
2018-11-27T06:25:50.856Z,7.00
2018-11-27T06:28:20.512Z,7.00
2018-11-27T06:30:50.043Z,7.10
2018-11-27T06:33:19.612Z,7.10
2018-11-27T06:35:49.099Z,7.00
2018-11-27T06:38:18.688Z,7.00
2018-11-27T06:40:48.425Z,7.00
2018-11-27T06:43:17.922Z,7.00
2018-11-27T06:45:47.384Z,7.00
2018-11-27T06:48:17.024Z,7.00
2018-11-27T06:50:46.474Z,7.00
2018-11-27T06:53:15.926Z,7.00
2018-11-27T06:55:45.473Z,7.00
2018-11-27T06:58:14.935Z,6.80
2018-11-27T07:00:44.493Z,6.90
2018-11-27T07:03:14.980Z,6.90
2018-11-27T07:05:44.430Z,6.90
2018-11-27T07:08:13.931Z,6.90
2018-11-27T07:10:45.466Z,7.00
2018-11-27T07:13:20.520Z,7.10
2018-11-27T07:15:51.280Z,7.10
2018-11-27T07:18:20.760Z,7.10
2018-11-27T07:20:50.259Z,7.10
2018-11-27T07:23:19.807Z,7.20
2018-11-27T07:25:49.246Z,7.10
2018-11-27T07:28:18.762Z,7.10
2018-11-27T07:30:48.221Z,7.20
2018-11-27T07:33:17.662Z,7.20
2018-11-27T07:35:47.124Z,7.20
2018-11-27T07:38:16.630Z,7.20
2018-11-27T07:40:46.117Z,7.00
2018-11-27T07:43:15.616Z,7.00
2018-11-27T07:45:45.196Z,7.10
2018-11-27T07:48:14.767Z,7.20
2018-11-27T07:50:44.459Z,7.30
2018-11-27T07:53:14.162Z,7.40
2018-11-27T07:55:43.730Z,7.40
2018-11-27T07:58:13.353Z,7.30
2018-11-27T08:00:42.961Z,7.30
2018-11-27T08:03:12.427Z,7.40
2018-11-27T08:05:42.756Z,7.40
2018-11-27T08:08:14.932Z,7.30
2018-11-27T08:10:46.031Z,7.40
2018-11-27T08:13:15.532Z,7.30
2018-11-27T08:15:45.274Z,7.40
2018-11-27T08:18:14.958Z,7.40
2018-11-27T08:20:44.521Z,7.50
2018-11-27T08:23:14.189Z,7.50
2018-11-27T08:25:43.748Z,7.40
2018-11-27T08:28:13.262Z,7.50
2018-11-27T08:30:43.495Z,7.50
2018-11-27T08:33:12.674Z,7.50
2018-11-27T08:35:42.165Z,7.50
2018-11-27T08:38:11.636Z,7.50
2018-11-27T08:40:41.201Z,7.60
2018-11-27T08:43:10.668Z,7.60
2018-11-27T08:45:40.144Z,7.70
2018-11-27T08:48:09.680Z,7.70
2018-11-27T08:50:39.103Z,7.80
2018-11-27T08:53:08.954Z,7.90
2018-11-27T08:55:42.366Z,7.90
2018-11-27T08:58:20.040Z,7.60
2018-11-27T09:00:49.742Z,7.50
2018-11-27T09:03:19.312Z,7.60
2018-11-27T09:05:48.958Z,7.70
2018-11-27T09:08:19.275Z,7.70
2018-11-27T09:10:48.777Z,7.80
2018-11-27T09:13:18.298Z,7.80
2018-11-27T09:15:47.796Z,7.80
2018-11-27T09:18:19.619Z,7.80
2018-11-27T09:20:49.070Z,7.90
2018-11-27T09:23:18.592Z,7.90
2018-11-27T09:25:48.015Z,7.90
2018-11-27T09:28:17.633Z,8.00
2018-11-27T09:30:47.133Z,8.00
2018-11-27T09:33:16.893Z,7.90
2018-11-27T09:35:46.394Z,7.90
2018-11-27T09:38:15.838Z,7.90
2018-11-27T09:40:45.515Z,7.90
2018-11-27T09:43:15.105Z,7.90
2018-11-27T09:45:46.032Z,7.90
2018-11-27T09:48:15.462Z,7.90
2018-11-27T09:50:44.953Z,7.90
2018-11-27T09:53:16.111Z,7.90
2018-11-27T09:55:45.652Z,7.80
2018-11-27T09:58:15.142Z,7.90
2018-11-27T10:00:44.755Z,7.90
2018-11-27T10:03:16.273Z,8.00
2018-11-27T10:05:45.761Z,8.00
2018-11-27T10:08:15.263Z,8.00
2018-11-27T10:10:44.789Z,8.10
2018-11-27T10:13:14.279Z,8.00
2018-11-27T10:15:43.815Z,8.00
2018-11-27T10:18:13.290Z,8.00
2018-11-27T10:20:43.843Z,8.00
2018-11-27T10:23:17.850Z,8.00
2018-11-27T10:25:47.323Z,8.00
2018-11-27T10:28:16.882Z,7.80
2018-11-27T10:30:46.366Z,7.80
2018-11-27T10:33:15.861Z,7.70
2018-11-27T10:35:50.621Z,7.80
2018-11-27T10:38:20.109Z,7.60
2018-11-27T10:40:49.717Z,7.60
2018-11-27T10:43:19.919Z,7.60
2018-11-27T10:45:48.840Z,7.60
2018-11-27T10:48:18.313Z,7.50
2018-11-27T10:50:47.869Z,7.50
2018-11-27T10:53:17.336Z,7.60
2018-11-27T10:55:46.840Z,7.60
2018-11-27T10:58:16.624Z,7.50
2018-11-27T11:00:51.480Z,7.60
2018-11-27T11:03:25.606Z,7.70
2018-11-27T11:05:56.485Z,7.50
2018-11-27T11:08:26.066Z,7.60
2018-11-27T11:10:55.645Z,7.50
2018-11-27T11:13:25.131Z,7.70
2018-11-27T11:15:54.638Z,7.70
2018-11-27T11:18:24.173Z,7.70
2018-11-27T11:20:53.652Z,7.80
2018-11-27T11:23:23.210Z,7.80
2018-11-27T11:25:52.719Z,7.80
2018-11-27T11:28:25.261Z,7.90
2018-11-27T11:30:54.717Z,7.80
2018-11-27T11:33:24.190Z,7.80
2018-11-27T11:35:53.673Z,7.70
2018-11-27T11:38:23.106Z,7.50
2018-11-27T11:40:53.376Z,7.50
2018-11-27T11:43:23.011Z,7.50
2018-11-27T11:45:52.461Z,7.50
2018-11-27T11:48:22.017Z,7.50
2018-11-27T11:50:51.499Z,7.60
2018-11-27T11:53:21.276Z,7.60
2018-11-27T11:55:50.899Z,7.60
2018-11-27T11:58:20.445Z,7.60
2018-11-27T12:00:52.769Z,7.60
2018-11-27T12:03:22.245Z,7.60
2018-11-27T12:05:51.831Z,7.70
2018-11-27T12:08:21.349Z,7.80
2018-11-27T12:10:50.822Z,7.80
2018-11-27T12:13:20.487Z,7.80
2018-11-27T12:15:50.082Z,7.80
2018-11-27T12:18:19.536Z,7.80
2018-11-27T12:20:49.079Z,7.90
2018-11-27T12:23:18.566Z,7.90
2018-11-27T12:25:48.363Z,7.90
2018-11-27T12:28:17.899Z,7.80
2018-11-27T12:30:47.495Z,7.80
2018-11-27T12:33:16.989Z,7.80
2018-11-27T12:35:46.419Z,7.90
2018-11-27T12:38:16.010Z,8.00
2018-11-27T12:40:45.495Z,8.00
2018-11-27T12:43:15.085Z,7.90
2018-11-27T12:45:44.571Z,7.70
2018-11-27T12:48:14.024Z,7.80
2018-11-27T12:50:47.547Z,7.90
2018-11-27T12:53:18.525Z,8.00
2018-11-27T12:55:49.990Z,8.00
2018-11-27T12:58:19.611Z,8.00
2018-11-27T13:00:49.152Z,7.90
2018-11-27T13:03:18.740Z,7.90
2018-11-27T13:05:48.572Z,8.00
2018-11-27T13:08:21.981Z,8.10
2018-11-27T13:10:51.598Z,8.20
2018-11-27T13:13:21.094Z,8.20
2018-11-27T13:15:50.590Z,8.30
2018-11-27T13:18:20.166Z,8.20
2018-11-27T13:20:49.671Z,8.10
2018-11-27T13:23:19.131Z,8.10
2018-11-27T13:25:48.797Z,8.20
2018-11-27T13:28:18.311Z,8.20
2018-11-27T13:30:56.209Z,8.20
2018-11-27T13:33:31.976Z,8.30
2018-11-27T13:36:01.747Z,8.30
2018-11-27T13:38:31.218Z,8.30
2018-11-27T13:41:00.968Z,8.30
2018-11-27T13:43:31.116Z,8.40
2018-11-27T13:46:01.925Z,8.40
2018-11-27T13:48:31.551Z,8.50
2018-11-27T13:51:01.062Z,8.50
2018-11-27T13:53:30.672Z,8.50
2018-11-27T13:56:00.124Z,8.40
2018-11-27T13:58:29.703Z,8.40
2018-11-27T14:00:59.157Z,8.20
2018-11-27T14:03:28.648Z,8.20
2018-11-27T14:05:58.287Z,8.20
2018-11-27T14:08:27.765Z,8.20
2018-11-27T14:10:57.292Z,8.20
2018-11-27T14:13:26.789Z,8.20
2018-11-27T14:15:56.435Z,8.20
2018-11-27T14:18:25.889Z,8.20
2018-11-27T14:20:55.351Z,8.20
2018-11-27T14:23:24.884Z,8.20
2018-11-27T14:25:54.426Z,8.20
2018-11-27T14:28:23.912Z,8.20
2018-11-27T14:30:53.463Z,8.00
2018-11-27T14:33:23.089Z,7.90
2018-11-27T14:35:52.604Z,7.70
2018-11-27T14:38:22.231Z,7.80
2018-11-27T14:40:51.738Z,7.80
2018-11-27T14:43:21.288Z,7.80
2018-11-27T14:45:50.721Z,7.80
2018-11-27T14:48:20.467Z,7.80
2018-11-27T14:50:49.952Z,7.80
2018-11-27T14:53:19.523Z,7.80
2018-11-27T14:55:49.175Z,7.80
2018-11-27T14:58:18.633Z,7.80
2018-11-27T15:00:48.349Z,7.80
2018-11-27T15:03:18.023Z,7.80
2018-11-27T15:05:47.521Z,7.80
2018-11-27T15:08:17.264Z,7.80
2018-11-27T15:10:46.812Z,7.80
2018-11-27T15:13:16.283Z,7.80
2018-11-27T15:15:45.882Z,7.60
2018-11-27T15:18:15.604Z,7.50
2018-11-27T15:20:45.289Z,7.30
2018-11-27T15:23:15.044Z,7.20
2018-11-27T15:25:44.608Z,7.10
2018-11-27T15:28:14.113Z,7.20
2018-11-27T15:30:43.709Z,7.20
2018-11-27T15:33:18.512Z,7.30
2018-11-27T15:35:43.005Z,7.30
2018-11-27T15:38:12.496Z,7.30
2018-11-27T15:40:42.294Z,7.30
2018-11-27T15:43:13.068Z,7.40
2018-11-27T15:45:41.470Z,7.40
2018-11-27T15:48:11.089Z,7.50
2018-11-27T15:50:40.581Z,7.40
2018-11-27T15:53:10.058Z,7.50
2018-11-27T15:55:40.863Z,7.50
2018-11-27T15:58:13.969Z,7.50
2018-11-27T16:00:44.732Z,7.50
2018-11-27T16:03:14.279Z,7.50
2018-11-27T16:05:44.623Z,7.50
2018-11-27T16:08:15.156Z,7.60
2018-11-27T16:10:44.766Z,7.60
2018-11-27T16:13:14.352Z,7.50
2018-11-27T16:15:43.931Z,7.50
2018-11-27T16:18:13.438Z,7.50
2018-11-27T16:20:42.935Z,7.50
2018-11-27T16:23:12.673Z,7.50
2018-11-27T16:25:42.160Z,7.50
2018-11-27T16:28:11.643Z,7.50
2018-11-27T16:30:41.253Z,7.50
2018-11-27T16:33:10.786Z,7.50
2018-11-27T16:35:40.282Z,7.50
2018-11-27T16:38:09.810Z,7.40
2018-11-27T16:40:40.319Z,7.40
2018-11-27T16:43:10.051Z,7.30
2018-11-27T16:45:39.741Z,7.10
2018-11-27T16:48:09.249Z,7.00
2018-11-27T16:50:38.898Z,6.90
2018-11-27T16:53:08.662Z,7.00
2018-11-27T16:55:38.142Z,6.90
2018-11-27T16:58:07.671Z,6.90
2018-11-27T17:00:37.376Z,6.90
2018-11-27T17:03:08.616Z,7.00
2018-11-27T17:05:44.196Z,7.00
2018-11-27T17:08:13.898Z,7.00
2018-11-27T17:10:45.156Z,7.00
2018-11-27T17:13:15.992Z,7.00
2018-11-27T17:15:45.706Z,7.00
2018-11-27T17:18:15.351Z,7.00
2018-11-27T17:20:46.428Z,7.00
2018-11-27T17:23:17.705Z,7.00
2018-11-27T17:25:47.340Z,7.00
2018-11-27T17:28:20.422Z,6.90
2018-11-27T17:31:06.764Z,6.90
2018-11-27T17:33:41.374Z,6.90
2018-11-27T17:36:11.478Z,6.80
2018-11-27T17:38:40.991Z,6.80
2018-11-27T17:41:11.016Z,6.80
2018-11-27T17:43:41.104Z,6.90
2018-11-27T17:46:10.643Z,6.80
2018-11-27T17:48:40.180Z,6.60
2018-11-27T17:51:10.370Z,6.40
2018-11-27T17:53:40.110Z,6.30
2018-11-27T17:56:09.619Z,6.20
2018-11-27T17:58:39.069Z,6.20
2018-11-27T18:01:09.895Z,6.20
2018-11-27T18:03:38.226Z,6.20
2018-11-27T18:06:07.730Z,6.30
2018-11-27T18:08:37.333Z,6.40
2018-11-27T18:11:07.351Z,6.50
2018-11-27T18:13:37.199Z,6.60
2018-11-27T18:16:07.109Z,6.50
2018-11-27T18:18:36.775Z,6.40
2018-11-27T18:21:06.733Z,6.20
2018-11-27T18:23:36.292Z,6.30
2018-11-27T18:26:06.276Z,6.40
2018-11-27T18:28:35.874Z,6.40
2018-11-27T18:31:06.163Z,6.40
2018-11-27T18:33:35.939Z,6.40
2018-11-27T18:36:05.652Z,6.40
2018-11-27T18:38:35.223Z,6.40
2018-11-27T18:41:05.003Z,6.50
2018-11-27T18:43:34.592Z,6.50
2018-11-27T18:46:04.138Z,6.50
2018-11-27T18:48:33.655Z,6.50
2018-11-27T18:51:03.231Z,6.50
2018-11-27T18:53:32.992Z,6.50
2018-11-27T18:56:02.654Z,6.40
2018-11-27T18:58:32.214Z,6.40
2018-11-27T19:01:01.877Z,6.40
2018-11-27T19:03:31.680Z,6.30
2018-11-27T19:06:01.431Z,6.30
2018-11-27T19:08:30.961Z,6.40
2018-11-27T19:11:00.635Z,6.30
2018-11-27T19:13:30.148Z,6.40
2018-11-27T19:16:00.285Z,6.50
2018-11-27T19:18:29.957Z,6.60
2018-11-27T19:20:59.887Z,6.60
2018-11-27T19:23:29.548Z,6.60
2018-11-27T19:25:59.198Z,6.70
2018-11-27T19:28:28.806Z,6.80
2018-11-27T19:30:58.435Z,6.80
2018-11-27T19:33:28.187Z,6.80
2018-11-27T19:35:57.735Z,6.70
2018-11-27T19:38:27.396Z,6.60
2018-11-27T19:40:57.236Z,6.60
2018-11-27T19:43:27.151Z,6.60
2018-11-27T19:45:56.930Z,6.50
2018-11-27T19:48:26.710Z,6.40
2018-11-27T19:50:57.303Z,6.40
2018-11-27T19:53:27.051Z,6.40
2018-11-27T19:55:56.910Z,6.50
2018-11-27T19:58:26.773Z,6.50
2018-11-27T20:00:56.461Z,6.60
2018-11-27T20:03:26.079Z,6.50
2018-11-27T20:05:55.678Z,6.50
2018-11-27T20:08:25.286Z,6.60
2018-11-27T20:10:54.939Z,6.60
2018-11-27T20:13:24.816Z,6.70
2018-11-27T20:15:54.546Z,6.70
2018-11-27T20:18:24.453Z,6.70
2018-11-27T20:20:54.175Z,6.70
2018-11-27T20:23:23.823Z,6.80
2018-11-27T20:25:53.473Z,6.80
2018-11-27T20:28:23.111Z,6.80
2018-11-27T20:30:52.700Z,6.80
2018-11-27T20:33:22.371Z,6.80
2018-11-27T20:35:52.149Z,6.80
2018-11-27T20:38:21.857Z,6.80
2018-11-27T20:40:51.978Z,6.90
2018-11-27T20:43:21.542Z,6.90
2018-11-27T20:45:51.233Z,7.00
2018-11-27T20:48:21.161Z,7.10
2018-11-27T20:50:52.456Z,7.00
2018-11-27T20:53:22.083Z,7.00
2018-11-27T20:55:52.353Z,7.00
2018-11-27T20:58:22.055Z,7.00
2018-11-27T21:00:53.126Z,6.90
2018-11-27T21:03:22.907Z,6.90
2018-11-27T21:05:52.566Z,6.90
2018-11-27T21:08:22.137Z,6.80
2018-11-27T21:10:51.691Z,6.80
2018-11-27T21:13:21.253Z,6.80
2018-11-27T21:15:50.785Z,6.80
2018-11-27T21:18:20.354Z,6.90
2018-11-27T21:20:49.986Z,6.90
2018-11-27T21:23:19.552Z,6.90
2018-11-27T21:25:49.112Z,6.90
2018-11-27T21:28:20.013Z,6.90
2018-11-27T21:30:51.947Z,6.90
2018-11-27T21:33:21.489Z,6.90
2018-11-27T21:35:51.189Z,6.90
2018-11-27T21:38:20.803Z,7.00
2018-11-27T21:40:50.451Z,7.00
2018-11-27T21:43:19.981Z,6.90
2018-11-27T21:45:49.625Z,7.00
2018-11-27T21:48:19.203Z,7.00
2018-11-27T21:50:48.740Z,6.90
2018-11-27T21:53:18.353Z,6.90
2018-11-27T21:55:47.914Z,6.90
2018-11-27T21:58:17.549Z,6.90
2018-11-27T22:00:47.790Z,6.80
2018-11-27T22:03:20.527Z,6.80
2018-11-27T22:05:50.072Z,6.80
2018-11-27T22:08:19.678Z,6.80
2018-11-27T22:10:49.162Z,6.80
2018-11-27T22:13:18.660Z,6.90
2018-11-27T22:15:48.137Z,6.70
2018-11-27T22:18:17.894Z,6.70
2018-11-27T22:20:47.389Z,6.60
2018-11-27T22:23:16.896Z,6.40
2018-11-27T22:25:46.630Z,6.50
2018-11-27T22:28:16.128Z,6.50
2018-11-27T22:30:45.713Z,6.60
2018-11-27T22:33:15.325Z,6.70
2018-11-27T22:35:51.442Z,6.70
2018-11-27T22:38:22.072Z,6.60
2018-11-27T22:40:51.613Z,6.20
2018-11-27T22:43:21.204Z,5.90
2018-11-27T22:45:50.690Z,5.80
2018-11-27T22:48:20.261Z,6.00
2018-11-27T22:50:49.776Z,6.10
2018-11-27T22:53:19.354Z,6.20
2018-11-27T22:55:48.859Z,6.20
2018-11-27T22:58:18.492Z,6.20
2018-11-27T23:00:50.047Z,6.20
2018-11-27T23:03:20.487Z,6.30
2018-11-27T23:05:50.076Z,6.40
2018-11-27T23:08:19.584Z,6.50
2018-11-27T23:10:50.036Z,6.50
2018-11-27T23:13:19.707Z,6.60
2018-11-27T23:15:49.183Z,6.60
2018-11-27T23:18:18.689Z,6.60
2018-11-27T23:20:48.252Z,6.60
2018-11-27T23:23:17.846Z,6.60
2018-11-27T23:25:47.353Z,6.60
2018-11-27T23:28:16.904Z,6.50
2018-11-27T23:30:46.641Z,6.50
2018-11-27T23:33:16.165Z,6.50
2018-11-27T23:35:45.627Z,6.50
2018-11-27T23:38:15.181Z,6.50
2018-11-27T23:40:44.889Z,6.50
2018-11-27T23:43:14.498Z,6.50
2018-11-27T23:45:43.979Z,6.60
2018-11-27T23:48:13.683Z,6.60
2018-11-27T23:50:43.479Z,6.50
2018-11-27T23:53:13.151Z,6.40
2018-11-27T23:55:42.939Z,6.40
2018-11-27T23:58:12.534Z,6.50
